Time;durP1;ratioP1;P1;durP2;ratioP2;P2;SDS_P1;SDS_P2;PMS_P1;PMS_P2;Temp;Humidity;BMP_temperature;BMP_pressure;BME280_temperature;BME280_humidity;BME280_pressure;Samples;Min_cycle;Max_cycle;Signal;HPM_P1;HPM_P2
2023/12/01 00:02:21;;;;;;;41.30;21.15;;;;;;;;;;6263870;28;20057;-95
2023/12/01 00:05:23;;;;;;;41.58;22.77;;;;;;;;;;6252124;28;20057;-95
2023/12/01 00:08:25;;;;;;;39.75;21.85;;;;;;;;;;6269693;28;20088;-96
2023/12/01 00:14:44;;;;;;;38.75;21.65;;;;;;;;;;6239881;28;20057;-96
2023/12/01 00:17:46;;;;;;;41.33;22.27;;;;;;;;;;6270718;28;20052;-96
2023/12/01 00:20:48;;;;;;;38.72;21.88;;;;;;;;;;6258048;28;20052;-96
2023/12/01 00:23:50;;;;;;;37.35;20.30;;;;;;;;;;6268446;28;20329;-96
2023/12/01 00:26:54;;;;;;;39.38;21.13;;;;;;;;;;6263539;28;20060;-96
2023/12/01 00:29:56;;;;;;;36.40;20.43;;;;;;;;;;6277286;28;20056;-96
2023/12/01 00:32:58;;;;;;;38.90;21.25;;;;;;;;;;6278091;28;20658;-96
2023/12/01 00:36:00;;;;;;;36.55;21.42;;;;;;;;;;6273486;28;20242;-96
2023/12/01 00:39:04;;;;;;;37.17;20.60;;;;;;;;;;6278835;28;20345;-96
2023/12/01 00:45:23;;;;;;;37.97;21.40;;;;;;;;;;6220275;28;20879;-96
2023/12/01 00:48:25;;;;;;;37.47;21.23;;;;;;;;;;6226656;28;20129;-96
2023/12/01 00:51:27;;;;;;;38.25;20.45;;;;;;;;;;6226245;28;20267;-96
2023/12/01 00:54:30;;;;;;;35.40;20.63;;;;;;;;;;6228345;28;20120;-95
2023/12/01 00:57:34;;;;;;;37.13;21.15;;;;;;;;;;6226647;28;20050;-96
2023/12/01 01:00:56;;;;;;;35.53;20.08;;;;;;;;;;6179035;28;20098;-96
2023/12/01 01:04:19;;;;;;;37.63;20.25;;;;;;;;;;6190214;28;20168;-96
2023/12/01 01:07:21;;;;;;;37.03;19.92;;;;;;;;;;6223245;28;20342;-96
2023/12/01 01:10:23;;;;;;;41.25;21.17;;;;;;;;;;6225466;28;20066;-95
2023/12/01 01:16:43;;;;;;;38.53;20.30;;;;;;;;;;6255540;28;20076;-96
2023/12/01 01:23:01;;;;;;;34.80;21.48;;;;;;;;;;6243416;28;20046;-96
2023/12/01 01:26:03;;;;;;;38.30;21.73;;;;;;;;;;6274984;28;20061;-96
2023/12/01 01:32:22;;;;;;;36.25;19.77;;;;;;;;;;6236123;28;20057;-96
2023/12/01 01:35:25;;;;;;;43.40;22.65;;;;;;;;;;6279400;28;20049;-96
2023/12/01 01:38:27;;;;;;;32.85;19.58;;;;;;;;;;6272224;28;20207;-96
2023/12/01 01:41:28;;;;;;;36.22;19.30;;;;;;;;;;6272517;28;20045;-96
2023/12/01 01:51:44;;;;;;;33.28;18.63;;;;;;;;;;6177047;28;20034;-96
2023/12/01 01:54:48;;;;;;;33.88;19.42;;;;;;;;;;6172873;28;20078;-96
2023/12/01 01:58:10;;;;;;;35.45;19.40;;;;;;;;;;6192449;28;20053;-95
2023/12/01 02:01:14;;;;;;;35.07;18.67;;;;;;;;;;6156798;28;20043;-96
2023/12/01 02:04:36;;;;;;;33.43;19.27;;;;;;;;;;6159861;28;20119;-96
2023/12/01 02:07:38;;;;;;;33.72;18.67;;;;;;;;;;6175177;28;20046;-96
2023/12/01 02:10:40;;;;;;;37.25;22.13;;;;;;;;;;6155497;28;20126;-96
2023/12/01 02:13:43;;;;;;;38.22;20.77;;;;;;;;;;6169192;28;20050;-96
2023/12/01 02:16:46;;;;;;;35.78;19.83;;;;;;;;;;6171328;28;20408;-96
2023/12/01 02:19:51;;;;;;;34.67;20.67;;;;;;;;;;6171503;28;20062;-96
2023/12/01 02:22:55;;;;;;;35.17;19.75;;;;;;;;;;6180144;28;20054;-96
2023/12/01 02:25:57;;;;;;;37.72;20.50;;;;;;;;;;6259909;28;20052;-96
2023/12/01 02:28:59;;;;;;;38.65;20.45;;;;;;;;;;6272327;28;20115;-96
2023/12/01 02:32:00;;;;;;;39.90;22.08;;;;;;;;;;6271216;28;20053;-96
2023/12/01 02:35:02;;;;;;;34.08;18.65;;;;;;;;;;6272563;28;20121;-96
2023/12/01 02:38:06;;;;;;;36.22;20.30;;;;;;;;;;6269955;28;20347;-96
2023/12/01 02:41:08;;;;;;;35.05;20.20;;;;;;;;;;6270367;28;20049;-96
2023/12/01 02:44:10;;;;;;;36.10;19.98;;;;;;;;;;6269307;28;20088;-96
2023/12/01 02:47:12;;;;;;;37.00;19.45;;;;;;;;;;6274235;28;20079;-96
2023/12/01 02:50:14;;;;;;;38.13;20.50;;;;;;;;;;6270492;28;20042;-96
2023/12/01 02:53:18;;;;;;;38.20;21.23;;;;;;;;;;6271108;28;20072;-96
2023/12/01 02:56:20;;;;;;;39.25;22.05;;;;;;;;;;6271341;28;20241;-96
2023/12/01 02:59:21;;;;;;;39.38;20.95;;;;;;;;;;6274454;28;20418;-96
2023/12/01 03:02:28;;;;;;;38.58;20.15;;;;;;;;;;6268205;28;20509;-96
2023/12/01 03:05:30;;;;;;;40.45;22.42;;;;;;;;;;6269439;28;20045;-96
2023/12/01 03:08:34;;;;;;;39.40;21.20;;;;;;;;;;6265396;28;20168;-96
2023/12/01 03:11:36;;;;;;;35.93;20.60;;;;;;;;;;6272677;28;20053;-96
2023/12/01 03:14:38;;;;;;;43.10;23.42;;;;;;;;;;6269103;28;20455;-95
2023/12/01 03:17:40;;;;;;;39.15;22.60;;;;;;;;;;6270970;28;20060;-96
2023/12/01 03:20:42;;;;;;;38.45;20.85;;;;;;;;;;6268545;28;20048;-96
2023/12/01 03:23:45;;;;;;;39.63;21.08;;;;;;;;;;6274095;28;20254;-96
2023/12/01 03:26:47;;;;;;;39.05;21.40;;;;;;;;;;6269900;28;20052;-95
2023/12/01 03:29:52;;;;;;;38.25;22.05;;;;;;;;;;6271680;28;20059;-95
2023/12/01 03:32:54;;;;;;;;;;;;;;;;;;6274070;28;20057;-96
2023/12/01 03:35:56;;;;;;;38.45;20.60;;;;;;;;;;6272186;28;19976;-96
2023/12/01 03:39:00;;;;;;;37.47;21.33;;;;;;;;;;6253820;28;20053;-96
2023/12/01 03:42:02;;;;;;;34.50;20.38;;;;;;;;;;6269330;28;20057;-96
2023/12/01 03:45:06;;;;;;;39.15;21.40;;;;;;;;;;6265244;28;20056;-96
2023/12/01 03:48:08;;;;;;;33.78;19.73;;;;;;;;;;6267885;28;20049;-96
2023/12/01 03:51:11;;;;;;;31.95;19.55;;;;;;;;;;6273084;28;20245;-96
2023/12/01 03:54:14;;;;;;;32.47;18.25;;;;;;;;;;6268483;28;20045;-96
2023/12/01 03:57:16;;;;;;;33.20;18.48;;;;;;;;;;6270611;28;20123;-96
2023/12/01 04:00:22;;;;;;;34.05;18.13;;;;;;;;;;6267785;28;20162;-95
2023/12/01 04:03:25;;;;;;;30.13;17.45;;;;;;;;;;6265404;28;20104;-96
2023/12/01 04:06:27;;;;;;;31.25;18.48;;;;;;;;;;6270946;28;20053;-96
2023/12/01 04:12:46;;;;;;;32.28;18.40;;;;;;;;;;6206727;28;20281;-96
2023/12/01 04:15:48;;;;;;;28.25;16.02;;;;;;;;;;6268121;28;20063;-95
2023/12/01 04:18:51;;;;;;;31.85;18.52;;;;;;;;;;6239335;28;20338;-96
2023/12/01 04:21:53;;;;;;;29.80;17.63;;;;;;;;;;6269516;28;20227;-96
2023/12/01 04:24:56;;;;;;;28.40;17.40;;;;;;;;;;6267758;28;20245;-96
2023/12/01 04:27:59;;;;;;;30.47;17.60;;;;;;;;;;6269423;28;20049;-96
2023/12/01 04:31:01;;;;;;;30.27;17.30;;;;;;;;;;6253380;28;20112;-96
2023/12/01 04:34:03;;;;;;;29.35;17.52;;;;;;;;;;6269609;28;20119;-95
2023/12/01 04:37:09;;;;;;;30.80;17.50;;;;;;;;;;6263582;28;20237;-96
2023/12/01 04:43:29;;;;;;;30.10;17.13;;;;;;;;;;6249320;28;20057;-96
2023/12/01 04:46:30;;;;;;;29.67;17.55;;;;;;;;;;6275376;28;20053;-96
2023/12/01 04:49:32;;;;;;;30.13;16.83;;;;;;;;;;6271183;28;20116;-96
2023/12/01 04:52:34;;;;;;;31.10;16.85;;;;;;;;;;6269906;28;20055;-95
2023/12/01 04:55:37;;;;;;;27.80;16.80;;;;;;;;;;6274093;28;20049;-96
2023/12/01 04:58:39;;;;;;;27.95;16.13;;;;;;;;;;6268182;28;20067;-95
2023/12/01 05:01:41;;;;;;;31.67;17.23;;;;;;;;;;6269971;28;20068;-96
2023/12/01 05:04:43;;;;;;;28.08;16.77;;;;;;;;;;6266759;28;20056;-96
2023/12/01 05:07:45;;;;;;;26.98;16.70;;;;;;;;;;6269258;28;20133;-96
2023/12/01 05:14:10;;;;;;;27.55;16.10;;;;;;;;;;6258578;28;20108;-96
2023/12/01 05:17:11;;;;;;;26.48;15.15;;;;;;;;;;6273025;28;20115;-96
2023/12/01 05:20:16;;;;;;;26.23;16.38;;;;;;;;;;6274084;28;20051;-96
2023/12/01 05:23:18;;;;;;;30.63;16.73;;;;;;;;;;6270694;28;20053;-96
2023/12/01 05:26:21;;;;;;;26.73;15.82;;;;;;;;;;6275302;28;20067;-95
2023/12/01 05:29:23;;;;;;;28.45;16.30;;;;;;;;;;6273458;28;20284;-96
2023/12/01 05:32:26;;;;;;;28.50;16.50;;;;;;;;;;6254839;28;20052;-96
2023/12/01 05:35:29;;;;;;;27.80;16.23;;;;;;;;;;6252730;28;20108;-96
2023/12/01 05:38:31;;;;;;;27.63;15.50;;;;;;;;;;6276902;28;20052;-96
2023/12/01 05:41:34;;;;;;;28.08;16.20;;;;;;;;;;6275706;28;20095;-96
2023/12/01 05:44:36;;;;;;;26.38;15.88;;;;;;;;;;6271093;28;20047;-95
2023/12/01 05:47:43;;;;;;;25.05;14.88;;;;;;;;;;6273965;28;20338;-96
2023/12/01 05:55:09;;;;;;;25.13;15.18;;;;;;;;;;6148207;28;20051;-96
2023/12/01 05:58:14;;;;;;;24.98;14.95;;;;;;;;;;6140808;28;20382;-96
2023/12/01 06:01:16;;;;;;;25.48;15.35;;;;;;;;;;6193808;28;20057;-96
2023/12/01 06:04:18;;;;;;;24.02;14.50;;;;;;;;;;6198987;28;20054;-96
2023/12/01 06:07:20;;;;;;;24.20;13.80;;;;;;;;;;6204822;28;20317;-96
2023/12/01 06:10:23;;;;;;;24.23;13.95;;;;;;;;;;6279483;28;20049;-96
2023/12/01 06:13:26;;;;;;;21.73;13.23;;;;;;;;;;6277627;28;20116;-95
2023/12/01 06:16:28;;;;;;;22.80;13.43;;;;;;;;;;6273041;28;20118;-95
2023/12/01 06:19:31;;;;;;;19.38;12.27;;;;;;;;;;6272415;28;20053;-96
2023/12/01 06:31:07;;;;;;;19.42;12.48;;;;;;;;;;6273577;28;20112;-94
2023/12/01 06:34:08;;;;;;;21.43;13.43;;;;;;;;;;6269180;28;20052;-95
2023/12/01 06:37:11;;;;;;;17.98;11.68;;;;;;;;;;6269992;28;20051;-96
2023/12/01 06:40:15;;;;;;;21.13;12.52;;;;;;;;;;6271805;28;20043;-95
2023/12/01 06:43:18;;;;;;;18.88;11.82;;;;;;;;;;6241424;28;20067;-95
2023/12/01 06:46:21;;;;;;;19.40;12.48;;;;;;;;;;6274417;28;20057;-95
2023/12/01 06:49:23;;;;;;;20.95;12.55;;;;;;;;;;6273917;28;20041;-95
2023/12/01 06:52:25;;;;;;;18.73;11.02;;;;;;;;;;6267740;28;20056;-94
2023/12/01 06:55:27;;;;;;;21.45;12.82;;;;;;;;;;6272738;28;20239;-95
2023/12/01 06:58:29;;;;;;;21.33;12.48;;;;;;;;;;6270875;28;20241;-93
2023/12/01 07:01:32;;;;;;;19.38;12.15;;;;;;;;;;6273141;28;20059;-95
2023/12/01 07:04:34;;;;;;;19.30;12.77;;;;;;;;;;6272049;28;20040;-95
2023/12/01 07:07:37;;;;;;;19.65;11.88;;;;;;;;;;6270216;28;20325;-95
2023/12/01 07:10:39;;;;;;;19.80;12.82;;;;;;;;;;6272026;28;20329;-94
2023/12/01 07:13:41;;;;;;;22.00;13.18;;;;;;;;;;6271988;28;20242;-95
2023/12/01 07:16:44;;;;;;;21.88;13.35;;;;;;;;;;6266060;28;20269;-94
2023/12/01 07:19:46;;;;;;;19.27;12.43;;;;;;;;;;6272953;28;20056;-94
2023/12/01 07:22:49;;;;;;;19.63;12.80;;;;;;;;;;6272470;28;20052;-95
2023/12/01 07:25:51;;;;;;;16.93;10.37;;;;;;;;;;6257654;28;20120;-95
2023/12/01 07:28:53;;;;;;;20.00;12.98;;;;;;;;;;6269323;28;20080;-95
2023/12/01 07:31:58;;;;;;;20.90;13.05;;;;;;;;;;6267134;28;20072;-96
2023/12/01 07:35:09;;;;;;;20.75;12.95;;;;;;;;;;6260754;28;20060;-95
2023/12/01 07:38:11;;;;;;;24.88;13.90;;;;;;;;;;6265573;28;20049;-95
2023/12/01 07:41:13;;;;;;;23.75;14.15;;;;;;;;;;6272980;28;20048;-95
2023/12/01 07:44:15;;;;;;;20.33;12.98;;;;;;;;;;6265708;28;20049;-93
2023/12/01 07:47:18;;;;;;;21.27;13.55;;;;;;;;;;6270564;28;20051;-96
2023/12/01 07:50:21;;;;;;;22.70;13.48;;;;;;;;;;6272151;28;20334;-95
2023/12/01 07:53:24;;;;;;;22.33;14.48;;;;;;;;;;6271992;28;20061;-95
2023/12/01 07:56:26;;;;;;;22.45;13.90;;;;;;;;;;6267722;28;20060;-95
2023/12/01 07:59:28;;;;;;;24.27;13.82;;;;;;;;;;6248287;28;20063;-95
2023/12/01 08:02:32;;;;;;;22.20;14.10;;;;;;;;;;6265736;28;20052;-95
2023/12/01 08:05:34;;;;;;;23.00;13.10;;;;;;;;;;6266370;28;20053;-93
2023/12/01 08:08:36;;;;;;;27.02;15.25;;;;;;;;;;6270991;28;20041;-95
2023/12/01 08:11:38;;;;;;;27.17;16.15;;;;;;;;;;6268707;28;20059;-95
2023/12/01 08:14:40;;;;;;;30.13;17.20;;;;;;;;;;6266865;28;20068;-95
2023/12/01 08:17:44;;;;;;;30.77;17.40;;;;;;;;;;6268618;28;20059;-94
2023/12/01 08:20:46;;;;;;;27.20;16.58;;;;;;;;;;6268424;28;20045;-94
2023/12/01 08:23:49;;;;;;;27.75;16.02;;;;;;;;;;6265815;28;20326;-95
2023/12/01 08:26:51;;;;;;;25.48;15.20;;;;;;;;;;6269872;28;20237;-95
2023/12/01 08:29:53;;;;;;;23.60;14.38;;;;;;;;;;6253790;28;20061;-95
2023/12/01 08:32:58;;;;;;;25.80;14.07;;;;;;;;;;6269342;28;20404;-96
2023/12/01 08:36:00;;;;;;;;;;;;;;;;;;6270734;28;20408;-95
2023/12/01 08:39:03;;;;;;;26.60;14.73;;;;;;;;;;6272216;28;19997;-96
2023/12/01 08:42:06;;;;;;;24.10;13.80;;;;;;;;;;6269352;28;20059;-95
2023/12/01 08:45:08;;;;;;;21.73;13.68;;;;;;;;;;6269783;28;20075;-95
2023/12/01 08:48:12;;;;;;;23.30;14.02;;;;;;;;;;6253921;28;20237;-96
2023/12/01 08:51:14;;;;;;;25.90;14.63;;;;;;;;;;6257530;28;20057;-96
2023/12/01 08:54:16;;;;;;;26.30;15.38;;;;;;;;;;6270883;28;20117;-94
2023/12/01 08:57:18;;;;;;;27.25;15.45;;;;;;;;;;6267144;28;20059;-95
2023/12/01 09:00:24;;;;;;;28.83;14.38;;;;;;;;;;6272617;28;20057;-95
2023/12/01 09:03:28;;;;;;;24.25;14.45;;;;;;;;;;6261985;28;20055;-95
2023/12/01 09:06:30;;;;;;;;;;;;;;;;;;6275393;28;20057;-95
2023/12/01 09:09:32;;;;;;;25.17;15.02;;;;;;;;;;6271753;28;19963;-96
2023/12/01 09:12:35;;;;;;;28.13;16.45;;;;;;;;;;6274396;28;20274;-96
2023/12/01 09:15:37;;;;;;;28.30;16.08;;;;;;;;;;6276138;28;20237;-95
2023/12/01 09:18:41;;;;;;;28.13;16.13;;;;;;;;;;6273505;28;20053;-96
2023/12/01 09:21:43;;;;;;;;;;;;;;;;;;6272664;28;20099;-96
2023/12/01 09:24:45;;;;;;;22.38;13.63;;;;;;;;;;6274598;28;20292;-96
2023/12/01 09:27:47;;;;;;;22.55;13.68;;;;;;;;;;6276671;28;20113;-96
2023/12/01 09:30:49;;;;;;;32.72;19.17;;;;;;;;;;6276498;28;20129;-96
2023/12/01 09:33:52;;;;;;;65.90;34.65;;;;;;;;;;6255382;28;20038;-96
2023/12/01 09:36:54;;;;;;;36.90;20.97;;;;;;;;;;6276105;28;20123;-96
2023/12/01 09:39:56;;;;;;;28.17;15.15;;;;;;;;;;6270431;28;20076;-96
2023/12/01 09:42:59;;;;;;;28.02;15.85;;;;;;;;;;6274622;28;20060;-96
2023/12/01 09:46:01;;;;;;;24.25;14.13;;;;;;;;;;6270569;28;20052;-96
2023/12/01 09:52:21;;;;;;;22.67;13.60;;;;;;;;;;6269798;28;20049;-96
2023/12/01 09:55:24;;;;;;;24.02;13.80;;;;;;;;;;6271010;28;20045;-96
2023/12/01 09:58:27;;;;;;;23.15;13.90;;;;;;;;;;6271350;28;20057;-96
2023/12/01 10:01:29;;;;;;;22.92;14.27;;;;;;;;;;6253164;28;20077;-96
2023/12/01 10:08:23;;;;;;;25.13;13.98;;;;;;;;;;6262669;28;20122;-95
2023/12/01 10:11:26;;;;;;;21.70;13.05;;;;;;;;;;6271040;28;20060;-96
2023/12/01 10:14:28;;;;;;;20.58;12.40;;;;;;;;;;6266158;28;20237;-96
2023/12/01 10:17:29;;;;;;;20.55;12.02;;;;;;;;;;6269391;28;20052;-96
2023/12/01 10:23:50;;;;;;;20.55;12.60;;;;;;;;;;6253781;28;20049;-96
2023/12/01 10:26:53;;;;;;;22.33;12.67;;;;;;;;;;6270235;28;20071;-96
2023/12/01 10:33:28;;;;;;;20.23;11.85;;;;;;;;;;6260409;28;20057;-96
2023/12/01 10:43:23;;;;;;;21.35;12.32;;;;;;;;;;6218622;28;20046;-96
2023/12/01 10:46:26;;;;;;;22.33;12.23;;;;;;;;;;6240315;28;20061;-96
2023/12/01 10:49:28;;;;;;;22.77;12.90;;;;;;;;;;6244957;28;20057;-94
2023/12/01 10:52:32;;;;;;;24.75;13.82;;;;;;;;;;6243499;28;20056;-96
2023/12/01 10:55:33;;;;;;;21.20;12.63;;;;;;;;;;6252117;28;20246;-94
2023/12/01 10:58:36;;;;;;;21.50;12.98;;;;;;;;;;6270392;28;20072;-96
2023/12/01 11:01:39;;;;;;;21.83;13.30;;;;;;;;;;6270133;28;20104;-96
2023/12/01 11:11:46;;;;;;;;;;;;;;;;;;6273754;28;20056;-96
2023/12/01 11:14:51;;;;;;;21.52;13.05;;;;;;;;;;6271514;28;19921;-96
2023/12/01 11:17:54;;;;;;;23.50;13.20;;;;;;;;;;6259414;28;20091;-96
2023/12/01 11:20:56;;;;;;;25.65;14.13;;;;;;;;;;6251075;28;20227;-96
2023/12/01 11:31:37;;;;;;;23.48;13.18;;;;;;;;;;6252869;28;20056;-96
2023/12/01 11:35:03;;;;;;;26.20;14.02;;;;;;;;;;6272418;28;20234;-96
2023/12/01 11:38:06;;;;;;;23.83;13.85;;;;;;;;;;6271458;28;20053;-96
2023/12/01 11:41:23;;;;;;;26.40;15.00;;;;;;;;;;6268164;28;20055;-96
2023/12/01 11:44:27;;;;;;;25.38;13.25;;;;;;;;;;6266955;28;20041;-96
2023/12/01 11:47:49;;;;;;;24.15;13.50;;;;;;;;;;6262963;28;20341;-96
2023/12/01 11:50:52;;;;;;;23.20;13.82;;;;;;;;;;6269216;28;20345;-96
2023/12/01 11:53:59;;;;;;;25.50;14.63;;;;;;;;;;6254290;28;20127;-96
2023/12/01 11:57:02;;;;;;;26.23;14.55;;;;;;;;;;6270302;28;20057;-96
2023/12/01 12:00:09;;;;;;;27.98;13.98;;;;;;;;;;6246972;28;20060;-96
2023/12/01 12:03:20;;;;;;;28.13;14.15;;;;;;;;;;6267009;28;20098;-96
2023/12/01 12:06:43;;;;;;;27.25;15.25;;;;;;;;;;6207221;28;20046;-96
2023/12/01 12:09:45;;;;;;;28.15;15.02;;;;;;;;;;6266555;28;20245;-96
2023/12/01 12:12:51;;;;;;;26.40;15.13;;;;;;;;;;6268823;28;20056;-96
2023/12/01 12:15:53;;;;;;;29.48;16.75;;;;;;;;;;6267332;28;20364;-95
2023/12/01 12:18:57;;;;;;;30.05;16.35;;;;;;;;;;6270782;28;20049;-95
2023/12/01 12:22:01;;;;;;;33.63;17.90;;;;;;;;;;6271877;28;20507;-96
2023/12/01 12:25:24;;;;;;;27.47;14.80;;;;;;;;;;6210508;28;20121;-95
2023/12/01 12:28:29;;;;;;;29.33;16.05;;;;;;;;;;6271891;28;20060;-96
2023/12/01 12:31:31;;;;;;;27.52;15.73;;;;;;;;;;6270545;28;20053;-96
2023/12/01 12:34:33;;;;;;;29.25;15.63;;;;;;;;;;6266641;28;20049;-96
2023/12/01 12:37:35;;;;;;;29.75;16.27;;;;;;;;;;6272603;28;20063;-95
2023/12/01 12:40:39;;;;;;;32.10;15.70;;;;;;;;;;6249464;28;20046;-96
2023/12/01 12:47:00;;;;;;;31.77;17.35;;;;;;;;;;6234260;28;20049;-96
2023/12/01 12:50:01;;;;;;;32.45;18.67;;;;;;;;;;6271622;28;20075;-96
2023/12/01 12:53:03;;;;;;;30.85;16.80;;;;;;;;;;6274217;28;20072;-96
2023/12/01 12:56:11;;;;;;;34.40;18.45;;;;;;;;;;6267707;28;20061;-96
2023/12/01 12:59:14;;;;;;;32.08;17.17;;;;;;;;;;6268286;28;20053;-95
2023/12/01 13:02:16;;;;;;;30.60;17.37;;;;;;;;;;6266277;28;20045;-96
2023/12/01 13:05:18;;;;;;;33.85;19.23;;;;;;;;;;6268680;28;20079;-95
2023/12/01 13:08:20;;;;;;;33.10;18.38;;;;;;;;;;6268268;28;20089;-96
2023/12/01 13:11:21;;;;;;;33.40;19.23;;;;;;;;;;6268590;28;20069;-96
2023/12/01 13:14:25;;;;;;;31.77;18.33;;;;;;;;;;6265005;28;20079;-96
2023/12/01 13:17:28;;;;;;;50.80;26.48;;;;;;;;;;6269449;28;20059;-96
2023/12/01 13:20:31;;;;;;;83.75;38.53;;;;;;;;;;6247376;28;20080;-96
2023/12/01 13:23:33;;;;;;;58.40;28.20;;;;;;;;;;6269183;28;20239;-96
2023/12/01 13:26:39;;;;;;;86.18;41.33;;;;;;;;;;6269990;28;20322;-96
2023/12/01 16:04:17;;;;;;;55.65;24.77;;;;;;;;;;6112066;29;20052;-94
2023/12/01 16:07:20;;;;;;;58.10;24.77;;;;;;;;;;6150253;28;20125;-95
2023/12/01 16:10:22;;;;;;;56.28;21.77;;;;;;;;;;6195751;28;20058;-96
2023/12/01 16:13:23;;;;;;;58.47;23.38;;;;;;;;;;6195444;28;20058;-94
2023/12/01 16:19:43;;;;;;;50.67;22.80;;;;;;;;;;6158093;28;20113;-95
2023/12/01 16:22:44;;;;;;;54.00;23.98;;;;;;;;;;6192229;28;20335;-96
2023/12/01 16:25:47;;;;;;;56.33;23.65;;;;;;;;;;6191834;28;20283;-95
2023/12/01 16:28:51;;;;;;;55.30;23.70;;;;;;;;;;6190206;28;20133;-95
2023/12/01 16:31:55;;;;;;;52.72;23.15;;;;;;;;;;6183086;28;20061;-96
2023/12/01 16:34:57;;;;;;;55.85;23.60;;;;;;;;;;6195064;28;20450;-96
2023/12/01 16:37:59;;;;;;;52.50;23.20;;;;;;;;;;6208492;28;20046;-96
2023/12/01 16:41:01;;;;;;;60.30;23.75;;;;;;;;;;6240359;28;20054;-95
2023/12/01 16:44:03;;;;;;;60.35;24.63;;;;;;;;;;6242887;28;20361;-95
2023/12/01 16:54:24;;;;;;;95.65;40.67;;;;;;;;;;6186961;28;20055;-96
2023/12/01 16:57:26;;;;;;;75.60;30.58;;;;;;;;;;6152908;28;20050;-96
2023/12/01 17:00:28;;;;;;;59.88;27.20;;;;;;;;;;6183606;28;20052;-94
2023/12/01 17:03:31;;;;;;;58.65;23.15;;;;;;;;;;6196735;28;20377;-94
2023/12/01 17:06:33;;;;;;;54.50;23.80;;;;;;;;;;6190035;28;20316;-95
2023/12/01 17:09:35;;;;;;;57.15;23.55;;;;;;;;;;6175911;28;20053;-94
2023/12/01 17:12:37;;;;;;;54.55;23.33;;;;;;;;;;6186493;28;20049;-94
2023/12/01 17:15:39;;;;;;;53.58;23.27;;;;;;;;;;6200647;28;20109;-95
2023/12/01 17:18:43;;;;;;;53.83;23.88;;;;;;;;;;6179436;28;20274;-94
2023/12/01 17:21:45;;;;;;;54.60;23.73;;;;;;;;;;6198019;28;20117;-95
2023/12/01 17:24:47;;;;;;;54.35;21.85;;;;;;;;;;6196121;28;20049;-94
2023/12/01 17:27:49;;;;;;;51.97;22.75;;;;;;;;;;6196247;28;20193;-96
2023/12/01 17:30:51;;;;;;;53.90;21.90;;;;;;;;;;6205908;28;20037;-95
2023/12/01 17:33:54;;;;;;;58.67;23.52;;;;;;;;;;6269670;28;20071;-96
2023/12/01 17:36:56;;;;;;;56.35;24.52;;;;;;;;;;6272502;28;20200;-96
2023/12/01 17:39:58;;;;;;;49.33;21.75;;;;;;;;;;6255589;28;20052;-94
2023/12/01 17:43:02;;;;;;;50.05;22.17;;;;;;;;;;6273087;28;20061;-95
2023/12/01 17:46:05;;;;;;;49.50;23.30;;;;;;;;;;6272140;28;20051;-95
2023/12/01 17:49:08;;;;;;;50.13;22.25;;;;;;;;;;6271968;28;20080;-95
2023/12/01 17:52:12;;;;;;;46.43;21.47;;;;;;;;;;6253163;28;20338;-95
2023/12/01 17:55:14;;;;;;;51.60;22.53;;;;;;;;;;6269196;28;20245;-95
2023/12/01 17:58:16;;;;;;;51.42;22.95;;;;;;;;;;6258572;28;20049;-93
2023/12/01 18:01:18;;;;;;;52.90;21.73;;;;;;;;;;6268156;28;20120;-95
2023/12/01 18:04:21;;;;;;;49.05;22.33;;;;;;;;;;6271329;28;20045;-95
2023/12/01 18:07:23;;;;;;;53.97;22.85;;;;;;;;;;6271780;28;20072;-95
2023/12/01 18:10:25;;;;;;;47.63;21.75;;;;;;;;;;6267048;28;20064;-96
2023/12/01 18:13:27;;;;;;;45.83;20.63;;;;;;;;;;6263417;28;20368;-95
2023/12/01 18:16:30;;;;;;;47.15;22.13;;;;;;;;;;6253601;28;20045;-95
2023/12/01 18:19:40;;;;;;;53.42;22.27;;;;;;;;;;6272377;28;20052;-96
2023/12/01 18:22:45;;;;;;;45.75;22.00;;;;;;;;;;6256682;28;20049;-96
2023/12/01 18:25:48;;;;;;;50.08;22.13;;;;;;;;;;6273481;28;20119;-96
2023/12/01 18:28:57;;;;;;;51.97;22.57;;;;;;;;;;6270177;28;20052;-95
2023/12/01 18:32:02;;;;;;;49.63;22.73;;;;;;;;;;6267178;28;20099;-94
2023/12/01 18:38:28;;;;;;;47.28;22.15;;;;;;;;;;6252429;28;20066;-94
2023/12/01 18:41:35;;;;;;;49.45;23.98;;;;;;;;;;6270424;28;20064;-95
2023/12/01 18:44:46;;;;;;;46.45;21.75;;;;;;;;;;6259294;28;20057;-92
2023/12/01 18:48:11;;;;;;;44.80;20.58;;;;;;;;;;6264061;28;20155;-96
2023/12/01 18:51:15;;;;;;;48.40;20.48;;;;;;;;;;6270131;28;20052;-95
2023/12/01 18:54:18;;;;;;;45.60;20.58;;;;;;;;;;6269985;28;20046;-95
2023/12/01 18:57:20;;;;;;;47.28;21.10;;;;;;;;;;6254480;28;20045;-96
2023/12/01 19:00:22;;;;;;;48.25;21.00;;;;;;;;;;6266602;28;20051;-96
2023/12/01 19:03:34;;;;;;;48.40;20.85;;;;;;;;;;6274752;28;20090;-96
2023/12/01 19:06:40;;;;;;;48.38;21.50;;;;;;;;;;6278507;28;20284;-96
2023/12/01 19:09:43;;;;;;;45.03;21.33;;;;;;;;;;6258572;28;20053;-95
2023/12/01 19:12:46;;;;;;;53.00;22.40;;;;;;;;;;6222574;28;20048;-96
2023/12/01 19:15:50;;;;;;;54.63;24.30;;;;;;;;;;6271468;28;20053;-96
2023/12/01 19:18:52;;;;;;;;;;;;;;;;;;6271280;28;20330;-95
2023/12/01 19:25:13;;;;;;;51.80;21.85;;;;;;;;;;6257418;28;20061;-95
2023/12/01 19:28:17;;;;;;;50.10;22.20;;;;;;;;;;6268328;28;20040;-95
2023/12/01 19:31:45;;;;;;;51.33;21.88;;;;;;;;;;6244731;28;20348;-96
2023/12/01 19:34:47;;;;;;;50.85;22.65;;;;;;;;;;6270818;28;20053;-95
2023/12/01 19:41:06;;;;;;;47.53;20.35;;;;;;;;;;6272182;28;20053;-96
2023/12/01 19:44:13;;;;;;;52.00;20.92;;;;;;;;;;6270553;28;20104;-96
2023/12/01 19:47:15;;;;;;;51.67;22.08;;;;;;;;;;6273628;28;20071;-96
2023/12/01 19:50:19;;;;;;;46.45;21.17;;;;;;;;;;6273105;28;20098;-96
2023/12/01 19:53:30;;;;;;;44.58;20.80;;;;;;;;;;6255438;28;20056;-94
2023/12/01 19:56:54;;;;;;;41.45;19.20;;;;;;;;;;6241732;28;20052;-96
2023/12/01 19:59:58;;;;;;;43.67;20.37;;;;;;;;;;6266321;28;20053;-96
2023/12/01 20:03:02;;;;;;;47.38;19.80;;;;;;;;;;6267476;28;20049;-96
2023/12/01 20:06:06;;;;;;;43.63;20.40;;;;;;;;;;6269733;28;20313;-96
2023/12/01 20:12:25;;;;;;;44.03;19.58;;;;;;;;;;6171499;28;20062;-96
2023/12/01 20:15:27;;;;;;;42.47;19.80;;;;;;;;;;6265903;28;20190;-96
2023/12/01 20:18:30;;;;;;;49.67;20.63;;;;;;;;;;6271125;28;20053;-96
2023/12/01 20:21:32;;;;;;;49.65;22.85;;;;;;;;;;6273188;28;20083;-96
2023/12/01 20:24:36;;;;;;;43.30;19.08;;;;;;;;;;6267116;28;20041;-96
2023/12/01 20:27:37;;;;;;;34.33;17.92;;;;;;;;;;6267930;28;20057;-96
2023/12/01 20:30:39;;;;;;;40.22;17.80;;;;;;;;;;6269089;28;20046;-96
2023/12/01 20:33:41;;;;;;;36.55;17.98;;;;;;;;;;6266077;28;20048;-96
2023/12/01 20:36:43;;;;;;;37.70;16.67;;;;;;;;;;6268307;28;20384;-96
2023/12/01 20:39:47;;;;;;;42.30;17.80;;;;;;;;;;6268653;28;20049;-96
2023/12/01 20:42:49;;;;;;;35.00;17.60;;;;;;;;;;6270059;28;20060;-96
2023/12/01 20:45:50;;;;;;;36.22;17.35;;;;;;;;;;6274953;28;20057;-96
2023/12/01 20:48:53;;;;;;;33.05;16.92;;;;;;;;;;6275785;28;20056;-96
2023/12/01 20:51:55;;;;;;;32.20;15.95;;;;;;;;;;6275950;28;20080;-96
2023/12/01 21:01:32;;;;;;;34.22;16.67;;;;;;;;;;6248006;28;20068;-95
2023/12/01 21:11:27;;;;;;;37.20;16.92;;;;;;;;;;6252375;28;20428;-95
2023/12/01 21:14:29;;;;;;;34.63;17.00;;;;;;;;;;6248746;28;20045;-96
2023/12/01 21:17:32;;;;;;;34.80;16.83;;;;;;;;;;6273001;28;20049;-93
2023/12/01 21:20:35;;;;;;;35.63;16.88;;;;;;;;;;6272511;28;20053;-95
2023/12/01 21:23:37;;;;;;;40.90;17.15;;;;;;;;;;6272946;28;20069;-96
2023/12/01 21:26:41;;;;;;;32.78;16.48;;;;;;;;;;6274472;28;20044;-95
2023/12/01 21:29:45;;;;;;;33.78;16.33;;;;;;;;;;6271734;28;20049;-95
2023/12/01 21:32:47;;;;;;;37.53;17.65;;;;;;;;;;6270845;28;20084;-95
2023/12/01 21:39:09;;;;;;;58.47;24.98;;;;;;;;;;6268918;28;20290;-93
2023/12/01 21:42:13;;;;;;;39.90;19.67;;;;;;;;;;6264945;28;20057;-95
2023/12/01 21:45:16;;;;;;;33.83;16.67;;;;;;;;;;6270547;28;20072;-96
2023/12/01 21:48:18;;;;;;;38.88;18.27;;;;;;;;;;6270569;28;20049;-96
2023/12/01 21:51:21;;;;;;;41.78;18.80;;;;;;;;;;6273890;28;21241;-95
2023/12/01 21:54:24;;;;;;;44.17;18.05;;;;;;;;;;6267428;28;20061;-96
2023/12/01 21:57:28;;;;;;;34.92;18.17;;;;;;;;;;6272998;28;20075;-95
2023/12/01 22:00:31;;;;;;;40.60;18.00;;;;;;;;;;6271387;28;20384;-96
2023/12/01 22:03:34;;;;;;;39.08;19.13;;;;;;;;;;6255219;28;20124;-95
2023/12/01 22:06:36;;;;;;;39.55;18.08;;;;;;;;;;6268263;28;20126;-95
2023/12/01 22:09:38;;;;;;;37.60;18.35;;;;;;;;;;6271864;28;20156;-96
2023/12/01 22:12:42;;;;;;;39.72;18.38;;;;;;;;;;6250032;28;20049;-95
2023/12/01 22:15:44;;;;;;;39.72;19.10;;;;;;;;;;6270829;28;20045;-96
2023/12/01 22:18:48;;;;;;;38.72;18.23;;;;;;;;;;6266409;28;20045;-96
2023/12/01 22:21:51;;;;;;;41.50;18.27;;;;;;;;;;6271516;28;20106;-96
2023/12/01 22:24:52;;;;;;;38.25;18.60;;;;;;;;;;6272463;28;20115;-96
2023/12/01 22:27:56;;;;;;;42.20;20.05;;;;;;;;;;6269660;28;20088;-96
2023/12/01 22:30:58;;;;;;;37.80;18.58;;;;;;;;;;6271190;28;20253;-96